Accueil
METAR-TAF:

METAR-TAF

Aéroports :

Aéroport international de Harbin Taiping

Harbin, Chine

latitude: 45-45N, longitude: 126-46E, altitude: 143 m

Observation

Le bulletin a été fait il y a 1 heure et 13 minutes, à 16:00 UTC
Vent 12 kt de sud
Température 3°C
Humidité 87%
Pression 1020 hPa
Visibilité: 6000 m
Nuages fragmentés à une hauteur de 1500 ft

METAR: ZYHB 211600Z 18006MPS 6000 BKN015 03/01 Q1020 NOSIG

Heure: 01:13 (17:13 UTC)

Prévision

Le bulletin a été fait il y a 8 heures et 7 minutes, à 09:06 UTC
Prévision valable du 21 à 12 UTC au 22 à 12 UTC
Vent 8 kt de sud/sud-est
Visibilité: 5000 m
Nuages fragmentés à une hauteur de 3000 ft
brume sèche
Evoluant progressivement
du 22 à 00 UTC au 22 à 01 UTC
Vent 19 kt de sud/sud-ouest avec des rafales jusqu'à 33 kt

TAF: ZYHB 210906Z 2112/2212 16004MPS 5000 HZ BKN030 TX07/2206Z TNM02/21Z BECMG 2200/2201 20010G17MPS

Observations et prévisions météorologiques de plus de 4000 aéroports (messages METAR et TAF).

Les stations disponibles sont représentées par des disques jaunes et rouges sur la carte.

Passer la souris dessus pour voir le nom de la station.

Cliquer dessus pour voir les observations et prévisions météorologiques.

Pour changer de carte: cliquez sur les boutons verts avec une croix noire pour zoomer, sur le bouton vert avec un tiret pour effectuer un zoom arrière, ou sur les flèches vertes pour les cartes adjacentes.


METAR-TAF: